Flight Track Log - Related Links

Times and Time Zones

All times are in EDT time to prevent confusion due to time zone crossing. See the THY2471 flight status page for this flight to view local times or setup timezone preferences in your user account.

Time Position Orientation Groundspeed Altitude Reporting Facility
EDT Latitude Longitude Course Direction KTS MPH feet Rate Location/Type
Sat 03:58:00 PM 37.5902 34.3770 311° West  Level Estimated
Sat 03:59:00 PM 37.6452 34.2941 310° West  Level Estimated
Sat 04:00:00 PM 37.7001 34.2111 310° West  Level Estimated
Sat 04:01:00 PM 37.7549 34.1280 310° West  Level Estimated
Sat 04:02:00 PM 37.8096 34.0448 310° West  Level Estimated
Sat 04:03:00 PM 37.8643 33.9614 310° West  Level Estimated
Sat 04:04:00 PM 37.9190 33.8780 310° West  Level Estimated
Sat 04:05:00 PM 37.9736 33.7944 310° West  Level Estimated
Sat 04:06:00 PM 38.0281 33.7107 310° West  Level Estimated
Sat 04:07:00 PM 38.0826 33.6268 310° West  Level Estimated
Sat 04:08:00 PM 38.1370 33.5428 309° West  Level Estimated
Sat 04:09:00 PM 38.1913 33.4587 309° West  Level Estimated
Sat 04:10:00 PM 38.2456 33.3745 309° West  Level Estimated
Sat 04:11:00 PM 38.2999 33.2902 309° West  Level Estimated
Sat 04:12:00 PM 38.3540 33.2057 309° West  Level Estimated
Sat 04:13:00 PM 38.4081 33.1211 309° West  Level Estimated
Sat 04:14:00 PM 38.4622 33.0364 309° West  Level Estimated
Sat 04:15:00 PM 38.5162 32.9515 309° West  Level Estimated
Sat 04:16:00 PM 38.5701 32.8665 309° West  Level Estimated
Sat 04:17:00 PM 38.6239 32.7814 309° West  Level Estimated
Sat 04:18:00 PM 38.6777 32.6962 309° West  Level Estimated
Sat 04:19:00 PM 38.7315 32.6108 309° West  Level Estimated
Sat 04:20:00 PM 38.7851 32.5253 309° West  Level Estimated
Sat 04:21:00 PM 38.8387 32.4397 309° West  Level Estimated
Sat 04:22:00 PM 38.8923 32.3540 309° West  Level Estimated
Sat 04:23:00 PM 38.9458 32.2681 309° West  Level Estimated
Sat 04:24:00 PM 38.9992 32.1821 309° West  Level Estimated
Sat 04:25:00 PM 39.0526 32.0959 309° West  Level Estimated
Sat 04:26:00 PM 39.1059 32.0097 309° West  Level Estimated
Sat 04:27:00 PM 39.1591 31.9233 308° West  Level Estimated
Sat 04:28:00 PM 39.2123 31.8367 308° West  Level Estimated
Sat 04:29:00 PM 39.2654 31.7501 308° West  Level Estimated
Sat 04:30:00 PM 39.3184 31.6633 308° West  Level Estimated
Sat 04:31:00 PM 39.3714 31.5763 308° West  Level Estimated
Sat 04:32:00 PM 39.4243 31.4893 308° West  Level Estimated
Sat 04:33:00 PM 39.4772 31.4021 308° West  Level Estimated
Sat 04:34:00 PM 39.5299 31.3148 308° West  Level Estimated
Sat 04:35:00 PM 39.5827 31.2273 308° West  Level Estimated
Sat 04:36:00 PM 39.6353 31.1397 308° West  Level Estimated
Sat 04:37:00 PM 39.6879 31.0520 308° West  Level Estimated
Sat 04:38:00 PM 39.7404 30.9641 308° West  Level Estimated
Sat 04:39:00 PM 39.7929 30.8762 308° West  Level Estimated
Sat 04:40:00 PM 39.8452 30.7880 308° West  Level Estimated
Sat 04:41:00 PM 39.8976 30.6998 308° West  Level Estimated
Sat 04:42:00 PM 39.9498 30.6114 308° West  Level Estimated
Sat 04:43:00 PM 40.0020 30.5229 308° West  Level Estimated
Sat 04:44:00 PM 40.0541 30.4342 308° West  Level Estimated
Sat 04:45:00 PM 40.1062 30.3454 307° West  Level Estimated
Sat 04:46:00 PM 40.1581 30.2565 307° West  Level Estimated
Sat 04:47:00 PM 40.2101 30.1674 307° West  Level Estimated
Sat 04:48:00 PM 40.2619 30.0782 307° West  Level Estimated
Sat 04:49:00 PM 40.3137 29.9888 307° West  Level Estimated
Sat 04:50:00 PM 40.3654 29.8993 307° West  Level Estimated
Sat 04:51:00 PM 40.4170 29.8097 307° West  Level Estimated
Sat 04:52:00 PM 40.4686 29.7200 307° West  Level Estimated
Sat 04:53:00 PM 40.5201 29.6301 307° West  Level Estimated
Sat 04:54:00 PM 40.5715 29.5401 307° West  Level Estimated
Sat 04:55:00 PM 40.6229 29.4499 307° West  Level Estimated
Sat 04:56:00 PM 40.6742 29.3596 307° West  Level Estimated
Sat 04:57:00 PM 40.7254 29.2691 307° West  Level Estimated
Sat 04:58:00 PM 40.7766 29.1785 307° West  Level Estimated
Sat 04:59:00 PM 40.8276 29.0878 307° West  Level Estimated
Sat 05:00:00 PM 40.8786 28.9969 307° West  Level Estimated
Sat 05:01:00 PM 40.9296 28.9059 307° West  Level Estimated
Sat 05:02:00 PM 40.9769 28.8211 306° West  Level Estimated
Sat 05:03:00 PM 40.9769 28.8211 21° North  Level Estimated
Sat 05:04:00 PM 40.9769 28.8211 21° North  Level Estimated
Sat 05:05:00 PM 40.9769 28.8211 21° North  Level Estimated
Sat 05:06:00 PM 40.9769 28.8211 21° North  Level Estimated
Sat 05:07:00 PM 40.9769 28.8211 21° North  Level Estimated
Sat 05:08:00 PM 40.9769 28.8211 21° North  Level Estimated
Sat 05:09:00 PM 40.9769 28.8211 21° North  Level Estimated
Sat 05:10:00 PM 40.9769 28.8211 21° North  Level Estimated
Sat 05:11:00 PM 40.9769 28.8211 21° North  Level Estimated
Sat 05:12:00 PM 40.9769 28.8211 21° North  Level Estimated
Sat 05:13:00 PM 40.9769 28.8211 21° North  Level Estimated
Sat 05:14:00 PM 40.9769 28.8211 21° North  Level Estimated
Sat 05:15:00 PM 40.9769 28.8211 21° North  Level Estimated
Sat 05:16:00 PM 40.9769 28.8211 21° North  Level Estimated
Sat 05:17:00 PM 40.9769 28.8211 21° North  Level Estimated
Sat 05:18:00 PM 40.9769 28.8211 21° North  Level Estimated

Login

Don't have an account? Register now (free) for customized features, flight alerts, and more!